createdAt,value
2023-08-16T00:01:07.162Z,22.51
2023-08-16T00:06:15.257Z,22.40
2023-08-16T00:11:21.095Z,22.27
2023-08-16T00:16:27.163Z,22.17
2023-08-16T00:21:33.803Z,22.07
2023-08-16T00:26:36.852Z,22.00
2023-08-16T00:31:43.695Z,21.93
2023-08-16T00:36:46.364Z,21.84
2023-08-16T00:41:49.480Z,21.75
2023-08-16T00:46:52.453Z,21.67
2023-08-16T00:51:55.183Z,21.63
2023-08-16T00:57:01.892Z,21.63
2023-08-16T01:02:05.006Z,21.60
2023-08-16T01:07:08.496Z,21.57
2023-08-16T01:12:42.254Z,21.50
2023-08-16T01:17:46.785Z,21.41
2023-08-16T01:23:08.330Z,21.35
2023-08-16T01:28:13.193Z,21.27
2023-08-16T01:33:16.201Z,21.18
2023-08-16T01:38:43.466Z,21.11
2023-08-16T01:43:49.005Z,21.48
2023-08-16T01:48:57.833Z,21.88
2023-08-16T01:54:01.841Z,21.91
2023-08-16T01:59:04.981Z,21.62
2023-08-16T02:04:07.794Z,21.49
2023-08-16T02:09:10.803Z,21.44
2023-08-16T02:14:13.450Z,21.43
2023-08-16T02:19:20.607Z,21.46
2023-08-16T02:24:25.835Z,21.47
2023-08-16T02:29:34.549Z,21.49
2023-08-16T02:34:37.498Z,21.52
2023-08-16T02:39:40.280Z,21.44
2023-08-16T02:44:44.409Z,21.27
2023-08-16T02:49:47.769Z,21.14
2023-08-16T02:54:50.635Z,21.01
2023-08-16T02:59:55.202Z,21.28
2023-08-16T03:04:57.966Z,21.55
2023-08-16T03:10:00.752Z,21.72
2023-08-16T03:15:03.691Z,21.85
2023-08-16T03:20:10.737Z,21.73
2023-08-16T03:25:21.524Z,21.27
2023-08-16T03:30:24.600Z,21.06
2023-08-16T03:35:27.471Z,21.09
2023-08-16T03:40:32.394Z,21.30
2023-08-16T03:45:43.150Z,21.75
2023-08-16T03:50:46.021Z,22.41
2023-08-16T03:55:58.577Z,23.17
2023-08-16T04:01:03.752Z,24.10
2023-08-16T04:06:16.642Z,25.03
2023-08-16T04:11:20.496Z,26.06
2023-08-16T04:16:25.075Z,27.03
2023-08-16T04:21:33.373Z,28.13
2023-08-16T04:26:36.142Z,29.28
2023-08-16T04:31:40.337Z,30.39
2023-08-16T04:36:43.191Z,31.40
2023-08-16T04:41:48.327Z,32.20
2023-08-16T04:46:51.260Z,32.82
2023-08-16T04:51:54.662Z,33.36
2023-08-16T04:56:57.451Z,34.11
2023-08-16T05:02:05.194Z,34.92
2023-08-16T05:07:08.026Z,35.65
2023-08-16T05:12:14.411Z,36.22
2023-08-16T05:17:17.265Z,36.82
2023-08-16T05:22:28.097Z,37.36
2023-08-16T05:27:31.135Z,37.89
2023-08-16T05:32:36.814Z,38.24
2023-08-16T05:37:39.606Z,38.87
2023-08-16T05:42:43.863Z,39.35
2023-08-16T05:47:48.497Z,39.48
2023-08-16T05:52:51.272Z,39.58
2023-08-16T05:58:08.294Z,39.72
2023-08-16T06:03:11.201Z,39.85
2023-08-16T06:08:14.139Z,40.15
2023-08-16T06:13:16.785Z,40.39
2023-08-16T06:18:21.586Z,40.58
2023-08-16T06:23:32.499Z,40.88
2023-08-16T06:28:35.142Z,41.13
2023-08-16T06:33:40.744Z,41.30
2023-08-16T06:38:45.989Z,41.61
2023-08-16T06:43:49.110Z,41.40
2023-08-16T06:48:56.862Z,41.75
2023-08-16T06:54:00.849Z,41.79
2023-08-16T06:59:03.866Z,41.28
2023-08-16T07:04:06.803Z,41.28
2023-08-16T07:09:10.438Z,41.86
2023-08-16T07:14:15.588Z,42.27
2023-08-16T07:19:18.944Z,42.79
2023-08-16T07:24:21.636Z,43.32
2023-08-16T07:29:25.437Z,43.44
2023-08-16T07:34:30.636Z,43.78
2023-08-16T07:39:34.162Z,43.97
2023-08-16T07:44:37.987Z,44.20
2023-08-16T07:49:43.672Z,44.33
2023-08-16T07:54:46.412Z,44.53
2023-08-16T07:59:49.588Z,44.40
2023-08-16T08:04:52.743Z,44.11
2023-08-16T08:09:59.812Z,43.60
2023-08-16T08:15:08.938Z,43.32
2023-08-16T08:20:15.420Z,43.02
2023-08-16T08:25:21.891Z,42.47
2023-08-16T08:30:24.874Z,41.95
2023-08-16T08:35:32.134Z,41.84
2023-08-16T08:40:36.855Z,41.90
2023-08-16T08:45:41.349Z,41.85
2023-08-16T08:50:46.214Z,42.21
2023-08-16T08:55:53.936Z,42.55
2023-08-16T09:01:09.849Z,42.49
2023-08-16T09:11:39.615Z,43.44
2023-08-16T09:16:56.146Z,43.14
2023-08-16T09:22:00.337Z,42.09
2023-08-16T09:27:04.551Z,42.09
2023-08-16T09:32:16.798Z,42.04
2023-08-16T09:37:23.028Z,41.58
2023-08-16T09:42:38.899Z,41.95
2023-08-16T09:52:56.898Z,42.24
2023-08-16T09:58:04.947Z,42.54
2023-08-16T10:03:10.007Z,42.14
2023-08-16T10:08:22.359Z,41.94
2023-08-16T10:13:25.457Z,41.99
2023-08-16T10:18:29.375Z,42.21
2023-08-16T10:23:32.415Z,42.49
2023-08-16T10:28:38.399Z,42.46
2023-08-16T10:33:52.510Z,42.00
2023-08-16T10:38:59.448Z,41.60
2023-08-16T10:44:06.908Z,40.17
2023-08-16T10:49:11.150Z,38.67
2023-08-16T10:54:17.078Z,37.62
2023-08-16T10:59:22.157Z,36.86
2023-08-16T11:04:38.115Z,36.58
2023-08-16T11:09:41.086Z,36.35
2023-08-16T11:14:47.130Z,36.09
2023-08-16T11:19:52.041Z,36.13
2023-08-16T11:24:57.729Z,36.33
2023-08-16T11:30:05.912Z,36.55
2023-08-16T11:35:13.024Z,36.77
2023-08-16T11:40:21.313Z,36.73
2023-08-16T11:45:33.154Z,36.73
2023-08-16T11:50:37.449Z,36.62
2023-08-16T11:55:41.117Z,36.38
2023-08-16T12:00:52.162Z,36.27
2023-08-16T12:07:02.468Z,36.12
2023-08-16T12:13:18.301Z,36.27
2023-08-16T12:19:27.404Z,36.63
2023-08-16T12:24:45.871Z,36.85
2023-08-16T12:36:07.083Z,37.06
2023-08-16T12:56:04.699Z,36.94
2023-08-16T13:01:41.763Z,37.04
2023-08-16T13:20:26.599Z,36.74
2023-08-16T13:35:50.570Z,35.90
2023-08-16T13:40:53.794Z,35.64
2023-08-16T13:45:55.452Z,35.46
2023-08-16T13:50:57.096Z,35.31
2023-08-16T13:56:04.605Z,35.24
2023-08-16T14:01:09.522Z,35.31
2023-08-16T14:06:12.248Z,35.29
2023-08-16T14:11:14.838Z,35.29
2023-08-16T14:16:16.875Z,35.38
2023-08-16T14:21:19.700Z,35.37
2023-08-16T14:26:21.707Z,35.12
2023-08-16T14:31:27.000Z,34.92
2023-08-16T14:47:09.154Z,34.99
2023-08-16T14:52:20.048Z,35.02
2023-08-16T14:57:22.828Z,34.98
2023-08-16T15:02:29.375Z,34.90
2023-08-16T15:07:32.347Z,34.84
2023-08-16T15:12:36.704Z,34.79
2023-08-16T15:17:39.613Z,34.68
2023-08-16T15:22:42.270Z,34.52
2023-08-16T15:27:48.076Z,34.46
2023-08-16T15:32:54.360Z,34.39
2023-08-16T15:37:57.173Z,34.25
2023-08-16T15:43:01.005Z,33.97
2023-08-16T15:48:07.280Z,33.44
2023-08-16T15:53:11.813Z,32.76
2023-08-16T15:58:14.447Z,32.10
2023-08-16T16:03:17.167Z,31.49
2023-08-16T16:08:23.938Z,30.85
2023-08-16T16:13:27.308Z,30.27
2023-08-16T16:18:30.052Z,29.90
2023-08-16T16:23:33.268Z,29.58
2023-08-16T16:28:36.401Z,29.22
2023-08-16T16:33:39.096Z,28.85
2023-08-16T16:38:47.148Z,28.47
2023-08-16T16:43:50.073Z,28.11
2023-08-16T16:48:52.805Z,27.88
2023-08-16T16:53:55.564Z,27.68
2023-08-16T16:59:00.562Z,27.45
2023-08-16T17:04:06.683Z,27.28
2023-08-16T17:09:12.099Z,27.14
2023-08-16T17:14:18.571Z,27.01
2023-08-16T17:19:22.805Z,26.80
2023-08-16T17:24:25.754Z,26.53
2023-08-16T17:29:31.243Z,26.23
2023-08-16T17:34:38.742Z,26.01
2023-08-16T17:39:49.071Z,25.82
2023-08-16T17:44:53.737Z,25.49
2023-08-16T17:49:58.977Z,25.19
2023-08-16T17:55:02.099Z,24.93
2023-08-16T18:00:12.821Z,24.75
2023-08-16T18:05:18.230Z,24.95
2023-08-16T18:10:22.301Z,25.10
2023-08-16T18:15:25.252Z,25.12
2023-08-16T18:20:28.122Z,25.09
2023-08-16T18:25:31.192Z,25.00
2023-08-16T18:30:33.980Z,24.84
2023-08-16T18:35:36.692Z,24.69
2023-08-16T18:40:40.079Z,24.60
2023-08-16T18:45:47.914Z,24.48
2023-08-16T18:50:53.002Z,24.40
2023-08-16T18:55:56.930Z,24.40
2023-08-16T19:00:59.791Z,24.34
2023-08-16T19:06:03.983Z,24.27
2023-08-16T19:11:07.893Z,24.17
2023-08-16T19:16:10.724Z,24.03
2023-08-16T19:21:13.949Z,23.91
2023-08-16T19:26:16.812Z,23.87
2023-08-16T19:31:24.952Z,23.88
2023-08-16T19:36:27.672Z,23.86
2023-08-16T19:41:30.466Z,23.81
2023-08-16T19:46:35.974Z,23.72
2023-08-16T19:51:42.334Z,23.65
2023-08-16T19:56:45.283Z,23.61
2023-08-16T20:01:48.205Z,23.50
2023-08-16T20:06:51.336Z,23.40
2023-08-16T20:11:54.758Z,23.32
2023-08-16T20:16:57.622Z,23.21
2023-08-16T20:22:00.347Z,23.08
2023-08-16T20:27:03.765Z,22.95
2023-08-16T20:32:38.082Z,22.83
2023-08-16T20:37:34.890Z,22.79
2023-08-16T20:42:42.460Z,22.81
2023-08-16T20:47:45.723Z,22.80
2023-08-16T20:52:48.881Z,22.76
2023-08-16T20:57:51.588Z,22.78
2023-08-16T21:02:54.490Z,22.64
2023-08-16T21:07:59.655Z,22.49
2023-08-16T21:13:06.014Z,22.48
2023-08-16T21:18:08.930Z,22.49
2023-08-16T21:23:12.934Z,22.41
2023-08-16T21:28:20.654Z,22.43
2023-08-16T21:33:25.511Z,22.37
2023-08-16T21:38:30.781Z,22.40
2023-08-16T21:43:33.592Z,22.40
2023-08-16T21:48:36.361Z,22.37
2023-08-16T21:53:39.708Z,22.24
2023-08-16T21:58:49.113Z,22.15
2023-08-16T22:04:17.109Z,22.16
2023-08-16T22:09:22.001Z,22.01
2023-08-16T22:14:26.045Z,21.89
2023-08-16T22:19:29.090Z,21.88
2023-08-16T22:24:32.117Z,21.85
2023-08-16T22:29:34.789Z,21.90
2023-08-16T22:34:39.323Z,21.91
2023-08-16T22:39:42.027Z,21.85
2023-08-16T22:44:46.868Z,21.75
2023-08-16T22:49:51.837Z,21.69
2023-08-16T22:54:56.645Z,21.67
2023-08-16T22:59:59.368Z,21.62
2023-08-16T23:05:11.361Z,21.55
2023-08-16T23:10:15.831Z,21.54
2023-08-16T23:15:18.744Z,21.56
2023-08-16T23:20:22.122Z,21.48
2023-08-16T23:25:29.541Z,21.54
2023-08-16T23:30:32.674Z,21.51
2023-08-16T23:35:35.732Z,21.57
2023-08-16T23:40:40.495Z,21.54
2023-08-16T23:45:45.693Z,21.49
2023-08-16T23:50:50.408Z,21.45
2023-08-16T23:55:53.094Z,21.43
